Time;durP1;ratioP1;P1;durP2;ratioP2;P2;SDS_P1;SDS_P2;PMS_P1;PMS_P2;Temp;Humidity;BMP_temperature;BMP_pressure;BME280_temperature;BME280_humidity;BME280_pressure;Samples;Min_cycle;Max_cycle;Signal;HPM_P1;HPM_P2
2023/10/13 00:01:30;;;;;;;;;6.25;6.00;;;;;21.46;82.50;100977.44;6340325;22;45240;-75
2023/10/13 00:03:55;;;;;;;;;7.50;5.00;;;;;21.43;82.67;100969.56;6340008;22;45394;-75
2023/10/13 00:06:21;;;;;;;;;6.50;6.00;;;;;21.45;82.57;100964.88;6340607;22;54691;-75
2023/10/13 00:08:46;;;;;;;;;10.00;7.00;;;;;21.42;82.18;100962.38;6340014;22;53599;-75
2023/10/13 00:11:15;;;;;;;;;8.75;6.50;;;;;21.46;82.59;100968.44;6340628;22;45276;-75
2023/10/13 00:13:50;;;;;;;;;8.75;7.50;;;;;21.45;82.28;100966.69;6339881;22;45403;-75
2023/10/13 00:16:22;;;;;;;;;7.75;7.00;;;;;21.40;82.44;100958.03;6339405;22;46308;-75
2023/10/13 00:18:50;;;;;;;;;7.25;7.00;;;;;21.40;82.45;100947.16;6340354;22;45501;-75
2023/10/13 00:21:19;;;;;;;;;7.00;6.75;;;;;21.45;82.30;100950.41;6339221;22;45299;-75
2023/10/13 00:23:54;;;;;;;;;6.25;6.25;;;;;21.45;82.13;100947.69;6339332;22;45309;-76
2023/10/13 00:26:28;;;;;;;;;7.25;7.25;;;;;21.44;82.12;100944.13;6340268;22;45354;-75
2023/10/13 00:29:16;;;;;;;;;8.00;6.00;;;;;21.41;82.40;100947.06;6340136;22;45527;-75
2023/10/13 00:31:48;;;;;;;;;9.00;7.25;;;;;21.45;82.42;100954.00;6339438;22;45299;-75
2023/10/13 00:34:28;;;;;;;;;5.50;4.50;;;;;21.44;82.68;100954.97;6339802;22;45313;-75
2023/10/13 00:37:19;;;;;;;;;6.00;5.75;;;;;21.37;82.40;100940.13;6339657;22;46927;-75
2023/10/13 00:39:45;;;;;;;;;8.50;7.00;;;;;21.40;82.42;100945.34;6339261;22;45349;-75
2023/10/13 00:42:19;;;;;;;;;9.00;9.00;;;;;21.41;82.99;100947.06;6340261;22;45220;-75
2023/10/13 00:44:49;;;;;;;;;8.00;6.50;;;;;21.41;82.83;100941.63;6339548;22;45326;-75
2023/10/13 00:47:49;;;;;;;;;5.00;5.00;;;;;21.42;82.77;100942.53;6339384;22;47050;-75
2023/10/13 00:50:17;;;;;;;;;8.50;6.75;;;;;21.44;82.38;100943.25;6340582;22;45748;-75
2023/10/13 00:52:46;;;;;;;;;13.75;7.50;;;;;21.35;82.59;100917.69;6339487;22;45282;-75
2023/10/13 00:55:14;;;;;;;;;12.00;8.50;;;;;21.38;82.88;100924.72;6339575;22;45277;-75
2023/10/13 00:57:40;;;;;;;;;6.00;4.25;;;;;21.41;82.49;100929.91;6339844;22;45555;-75
2023/10/13 01:00:19;;;;;;;;;7.75;7.00;;;;;21.41;82.48;100929.91;6339695;22;45419;-75
2023/10/13 01:02:54;;;;;;;;;7.50;6.75;;;;;21.38;83.36;100920.13;6340275;22;45246;-75
2023/10/13 01:05:20;;;;;;;;;9.00;7.25;;;;;21.37;83.07;100918.41;6340105;22;45353;-75
2023/10/13 01:07:52;;;;;;;;;10.50;8.75;;;;;21.36;83.05;100921.25;6340418;22;46159;-75
2023/10/13 01:10:19;;;;;;;;;10.25;8.25;;;;;21.34;82.90;100915.94;6312177;22;45294;-74
2023/10/13 01:12:45;;;;;;;;;8.00;7.00;;;;;21.33;83.21;100911.47;6339697;22;45378;-75
2023/10/13 01:15:13;;;;;;;;;10.50;8.75;;;;;21.34;83.39;100915.94;6339586;22;45223;-75
2023/10/13 01:17:38;;;;;;;;;8.75;7.50;;;;;21.34;83.03;100912.34;6339441;22;46471;-75
2023/10/13 01:20:05;;;;;;;;;9.75;8.25;;;;;21.32;83.40;100909.75;6339470;22;46571;-75
2023/10/13 01:22:31;;;;;;;;;8.25;8.00;;;;;21.31;83.03;100907.16;6339986;22;45306;-75
2023/10/13 01:25:06;;;;;;;;;11.75;9.75;;;;;21.29;83.09;100897.25;6338811;22;45265;-75
2023/10/13 01:27:38;;;;;;;;;8.00;8.00;;;;;21.28;83.10;100897.38;6338289;22;45262;-75
2023/10/13 01:30:10;;;;;;;;;9.25;8.75;;;;;21.31;83.55;100899.00;6339698;22;45385;-75
2023/10/13 01:32:40;;;;;;;;;7.00;4.75;;;;;21.30;83.56;100900.88;6338533;22;45454;-75
2023/10/13 01:35:07;;;;;;;;;8.75;7.75;;;;;21.27;83.03;100901.94;6339879;22;45302;-75
2023/10/13 01:37:32;;;;;;;;;7.00;7.00;;;;;21.23;83.83;100886.88;6339969;22;46356;-75
2023/10/13 01:39:57;;;;;;;;;7.75;7.00;;;;;21.25;83.78;100884.91;6338997;22;54007;-75
2023/10/13 01:42:24;;;;;;;;;8.00;6.25;;;;;21.25;83.74;100884.91;6339204;22;52118;-75
2023/10/13 01:44:49;;;;;;;;;12.25;8.00;;;;;21.27;83.52;100887.53;6338939;22;45258;-76
2023/10/13 01:47:16;;;;;;;;;9.00;8.25;;;;;21.26;83.44;100880.34;6340146;22;46029;-75
2023/10/13 01:49:43;;;;;;;;;10.25;9.50;;;;;21.19;83.17;100865.50;6339263;22;45338;-75
2023/10/13 01:52:15;;;;;;;;;9.75;8.00;;;;;21.25;83.79;100875.88;6339665;22;45314;-76
2023/10/13 01:54:41;;;;;;;;;6.50;6.50;;;;;21.24;83.78;100857.88;6338877;22;45377;-75
2023/10/13 01:57:07;;;;;;;;;11.75;9.25;;;;;21.18;84.02;100850.19;6338847;22;46078;-75
2023/10/13 01:59:33;;;;;;;;;10.00;7.75;;;;;21.19;83.78;100850.06;6339556;22;45420;-75
2023/10/13 02:02:00;;;;;;;;;10.25;9.00;;;;;21.20;83.52;100861.78;6340220;22;45293;-75
2023/10/13 02:04:27;;;;;;;;;10.50;8.00;;;;;21.15;84.26;100850.41;6339766;22;45513;-75
2023/10/13 02:06:52;;;;;;;;;12.00;11.00;;;;;21.12;84.23;100842.50;6339871;22;45192;-75
2023/10/13 02:09:25;;;;;;;;;14.25;12.00;;;;;21.07;84.07;100835.59;6339166;22;45218;-75
2023/10/13 02:11:54;;;;;;;;;13.50;8.75;;;;;21.12;83.92;100843.38;6338876;22;45326;-75
2023/10/13 02:14:22;;;;;;;;;12.50;10.50;;;;;21.12;84.21;100829.81;6338717;22;45216;-75
2023/10/13 02:16:50;;;;;;;;;11.75;10.75;;;;;21.08;84.44;100823.75;6339204;22;46865;-75
2023/10/13 02:19:16;;;;;;;;;10.00;8.75;;;;;21.09;83.78;100813.75;6311278;22;45341;-75
2023/10/13 02:21:45;;;;;;;;;8.75;7.75;;;;;21.10;84.39;100810.06;6338488;22;45556;-75
2023/10/13 02:24:13;;;;;;;;;12.00;10.25;;;;;21.14;84.47;100808.84;6336537;22;45256;-75
2023/10/13 02:26:40;;;;;;;;;8.67;8.00;;;;;21.13;83.87;100801.69;6339131;22;45368;-75
2023/10/13 02:29:12;;;;;;;;;10.75;9.25;;;;;21.11;84.00;100787.38;6338963;22;45239;-75
2023/10/13 02:31:39;;;;;;;;;7.50;7.50;;;;;21.04;84.32;100778.81;6338959;22;45404;-75
2023/10/13 02:34:08;;;;;;;;;8.25;8.25;;;;;21.07;83.79;100778.59;6339200;22;45425;-75
2023/10/13 02:36:43;;;;;;;;;9.75;8.00;;;;;21.06;84.52;100774.13;6338817;22;46920;-75
2023/10/13 02:39:09;;;;;;;;;8.50;6.75;;;;;21.09;83.95;100778.47;6338763;22;45216;-75
2023/10/13 02:41:38;;;;;;;;;11.25;9.50;;;;;21.09;84.30;100784.75;6312705;22;45263;-75
2023/10/13 02:44:19;;;;;;;;;12.25;8.75;;;;;21.08;83.60;100777.63;6339609;22;45428;-75
2023/10/13 02:46:50;;;;;;;;;9.75;8.00;;;;;21.09;84.25;100784.75;6312052;22;48104;-75
2023/10/13 02:49:19;;;;;;;;;10.00;7.25;;;;;21.10;84.26;100780.22;6340309;22;45317;-74
2023/10/13 02:51:44;;;;;;;;;10.25;8.50;;;;;21.04;84.40;100778.81;6339447;22;45345;-75
2023/10/13 02:54:18;;;;;;;;;8.50;8.25;;;;;21.10;84.02;100780.22;6337998;22;45567;-75
2023/10/13 02:56:56;;;;;;;;;7.25;7.25;;;;;21.09;84.37;100775.75;6340677;22;45263;-75
2023/10/13 02:59:38;;;;;;;;;13.50;9.75;;;;;21.10;84.02;100769.38;6341063;22;45268;-75
2023/10/13 03:02:17;;;;;;;;;11.00;8.25;;;;;21.09;83.72;100765.75;6340506;22;45256;-75
2023/10/13 03:04:47;;;;;;;;;10.75;9.00;;;;;21.04;83.58;100767.97;6339508;22;45461;-75
2023/10/13 03:07:15;;;;;;;;;8.50;6.00;;;;;21.10;83.53;100770.22;6340090;22;46258;-75
2023/10/13 03:09:50;;;;;;;;;10.50;8.25;;;;;21.11;83.51;100768.38;6339698;22;45258;-75
2023/10/13 03:12:15;;;;;;;;;10.00;8.00;;;;;21.12;83.94;100761.06;6340440;22;45332;-75
2023/10/13 03:14:41;;;;;;;;;9.00;9.00;;;;;21.03;83.68;100749.97;6340306;22;45283;-75
2023/10/13 03:17:14;;;;;;;;;10.75;8.75;;;;;21.12;84.03;100758.38;6339746;22;46028;-75
2023/10/13 03:19:46;;;;;;;;;10.25;9.75;;;;;21.12;83.81;100763.78;6340131;22;45475;-75
2023/10/13 03:22:12;;;;;;;;;9.50;7.50;;;;;21.11;83.50;100760.22;6339573;22;45411;-75
2023/10/13 03:24:45;;;;;;;;;8.75;8.75;;;;;21.12;83.73;100750.22;6339531;22;45509;-75
2023/10/13 03:27:16;;;;;;;;;10.00;7.25;;;;;21.12;83.30;100740.25;6339786;22;46928;-75
2023/10/13 03:29:46;;;;;;;;;9.50;8.00;;;;;21.10;83.75;100744.94;6340683;22;45313;-75
2023/10/13 03:32:14;;;;;;;;;13.00;10.25;;;;;21.12;83.64;100744.78;6340630;22;45239;-75
2023/10/13 03:34:49;;;;;;;;;7.50;7.00;;;;;21.11;83.16;100738.50;6340271;22;45461;-74
2023/10/13 03:39:59;;;;;;;;;9.25;7.00;;;;;21.09;83.32;100730.47;6340555;22;45489;-75
2023/10/13 03:42:25;;;;;;;;;11.75;8.50;;;;;21.05;82.71;100729.00;6339860;22;45307;-75
2023/10/13 03:44:51;;;;;;;;;9.00;7.50;;;;;21.00;83.04;100722.19;6339834;22;55149;-75
2023/10/13 03:47:26;;;;;;;;;9.00;8.25;;;;;21.04;83.26;100720.97;6340053;22;46196;-74
2023/10/13 03:50:14;;;;;;;;;10.75;8.00;;;;;21.02;82.98;100712.94;6340534;22;45480;-75
2023/10/13 03:52:40;;;;;;;;;12.50;9.50;;;;;21.03;83.05;100711.97;6339872;22;45306;-75
2023/10/13 03:55:06;;;;;;;;;9.00;7.75;;;;;21.01;82.14;100713.91;6339724;22;45377;-75
2023/10/13 03:57:37;;;;;;;;;9.25;8.50;;;;;21.00;82.84;100703.19;6338003;22;45565;-75
2023/10/13 04:00:09;;;;;;;;;7.50;7.00;;;;;20.99;82.41;100701.47;6340188;22;45334;-75
2023/10/13 04:02:34;;;;;;;;;5.25;2.25;;;;;21.01;82.28;100705.78;6340175;22;45226;-75
2023/10/13 04:05:07;;;;;;;;;9.25;8.00;;;;;21.02;81.79;100712.94;6340521;22;45470;-75
2023/10/13 04:11:41;;;;;;;;;10.75;9.75;;;;;21.00;81.73;100703.19;6339719;22;45320;-75
2023/10/13 04:16:02;;;;;;;;;11.25;9.00;;;;;20.95;80.60;100695.41;6340220;22;45381;-75
2023/10/13 04:19:19;;;;;;;;;10.00;9.00;;;;;20.90;79.67;100689.47;6339955;22;46990;-75
2023/10/13 04:24:23;;;;;;;;;13.00;10.25;;;;;20.92;79.81;100684.81;6339231;22;45373;-75
2023/10/13 04:32:38;;;;;;;;;11.00;10.75;;;;;20.91;78.78;100669.50;6340276;22;45443;-76
2023/10/13 04:37:58;;;;;;;;;10.50;9.50;;;;;20.92;78.50;100669.38;6340270;22;45414;-76
2023/10/13 04:40:28;;;;;;;;;10.25;9.25;;;;;20.91;78.68;100658.63;6339299;22;46750;-75
2023/10/13 04:42:56;;;;;;;;;11.50;9.25;;;;;20.85;77.77;100651.84;6339951;22;45275;-75
2023/10/13 04:48:13;;;;;;;;;12.00;7.50;;;;;20.88;77.70;100648.91;6340118;22;45353;-76
2023/10/13 04:50:44;;;;;;;;;9.75;9.00;;;;;20.89;77.86;100647.03;6338817;22;46291;-75
2023/10/13 04:53:59;;;;;;;;;10.00;10.00;;;;;20.86;77.74;100640.00;6338906;22;45451;-75
2023/10/13 04:59:35;;;;;;;;;13.50;10.50;;;;;20.86;76.81;100641.84;6339774;22;45257;-75
2023/10/13 05:49:20;;;;;;;;;12.00;12.00;;;;;20.53;76.31;100581.06;6339759;22;45456;-76
2023/10/13 06:29:26;;;;;;;;;12.75;12.00;;;;;20.40;78.28;100599.22;6340780;22;45341;-74
2023/10/13 06:31:51;;;;;;;;;14.25;14.00;;;;;20.39;78.15;100583.97;6340643;22;47782;-75
2023/10/13 06:34:20;;;;;;;;;16.50;15.25;;;;;20.37;78.72;100586.78;6338126;22;52098;-75
2023/10/13 06:36:47;;;;;;;;;17.00;14.25;;;;;20.37;78.31;100589.50;6339890;22;45326;-74
2023/10/13 06:41:56;;;;;;;;;15.50;14.50;;;;;20.34;78.21;100581.59;6340622;22;45588;-75
2023/10/13 06:44:22;;;;;;;;;16.00;13.75;;;;;20.37;78.46;100575.94;6339307;22;45217;-76
2023/10/13 06:46:49;;;;;;;;;14.50;13.25;;;;;20.37;77.79;100592.22;6339600;22;45224;-76
2023/10/13 06:49:18;;;;;;;;;17.50;16.00;;;;;20.39;77.67;100581.25;6340696;22;45331;-76
2023/10/13 06:51:46;;;;;;;;;17.50;17.50;;;;;20.39;77.67;100584.81;6339428;22;45628;-78
2023/10/13 06:54:19;;;;;;;;;19.00;15.75;;;;;20.36;77.71;100585.94;6339182;22;45475;-75
2023/10/13 06:56:45;;;;;;;;;16.75;15.50;;;;;20.32;77.38;100584.44;6339657;22;45309;-81
2023/10/13 06:59:14;;;;;;;;;18.00;16.25;;;;;20.35;77.29;100588.75;6307599;22;47147;-81
2023/10/13 07:01:41;;;;;;;;;14.75;14.75;;;;;20.38;77.33;100590.38;6339902;22;45284;-82
2023/10/13 07:04:12;;;;;;;;;17.00;15.00;;;;;20.32;76.56;100567.31;6336040;22;45409;-81
2023/10/13 07:06:48;;;;;;;;;15.75;15.25;;;;;20.39;76.83;100584.81;6338415;22;45394;-82
2023/10/13 07:09:39;;;;;;;;;14.25;13.00;;;;;20.36;77.01;100580.53;6337709;22;45448;-82
2023/10/13 07:12:16;;;;;;;;;15.00;14.75;;;;;20.37;76.71;100586.78;6338443;22;45499;-82
2023/10/13 07:14:51;;;;;;;;;14.00;13.25;;;;;20.34;76.54;100570.75;6340052;22;45349;-74
2023/10/13 07:17:23;;;;;;;;;17.75;13.50;;;;;20.43;76.43;100586.34;6311823;22;45437;-83
2023/10/13 07:19:53;;;;;;;;;13.50;12.50;;;;;20.47;76.46;100582.41;6339697;22;47074;-78
2023/10/13 07:22:19;;;;;;;;;12.75;12.75;;;;;20.47;76.05;100576.13;6312901;22;45436;-77
2023/10/13 07:24:49;;;;;;;;;14.50;14.50;;;;;20.50;75.62;100587.59;6334188;22;45489;-69
2023/10/13 07:27:23;;;;;;;;;13.75;12.50;;;;;20.48;75.42;100583.25;6338922;22;45526;-70
2023/10/13 07:30:14;;;;;;;;;14.50;14.00;;;;;20.50;75.57;100581.31;6339105;22;45382;-73
2023/10/13 07:32:45;;;;;;;;;14.25;11.75;;;;;20.48;75.30;100578.72;6335437;22;45287;-73
2023/10/13 07:35:17;;;;;;;;;12.00;12.00;;;;;20.53;75.19;100586.47;6337296;22;45376;-73
2023/10/13 07:37:43;;;;;;;;;18.00;16.50;;;;;20.52;75.32;100579.34;6337725;22;45414;-73
2023/10/13 07:43:00;;;;;;;;;12.75;12.75;;;;;20.54;74.19;100585.50;6338201;22;45391;-73
2023/10/13 07:45:35;;;;;;;;;17.00;15.25;;;;;20.52;73.60;100585.63;6337860;22;45311;-72
2023/10/13 07:48:04;;;;;;;;;11.50;11.25;;;;;20.56;73.99;100594.38;6338770;22;45461;-73
2023/10/13 07:50:33;;;;;;;;;16.50;13.25;;;;;20.55;73.46;100585.38;6338877;22;45421;-73
2023/10/13 07:53:04;;;;;;;;;10.00;9.00;;;;;20.42;73.71;100567.47;6337657;22;45255;-73
2023/10/13 07:55:33;;;;;;;;;12.00;12.00;;;;;20.62;73.28;100584.94;6311879;22;45267;-73
2023/10/13 07:57:59;;;;;;;;;15.25;14.25;;;;;20.63;72.95;100589.38;6338181;22;45503;-73
2023/10/13 08:03:17;;;;;;;;;13.00;12.25;;;;;20.62;72.54;100584.94;6337489;22;45262;-73
2023/10/13 08:05:58;;;;;;;;;15.25;14.25;;;;;20.67;72.53;100593.59;6336659;22;45386;-72
2023/10/13 08:08:35;;;;;;;;;12.75;12.25;;;;;20.65;72.51;100582.88;6311800;22;45387;-71
2023/10/13 08:11:08;;;;;;;;;11.75;9.75;;;;;20.66;72.75;100576.44;6336797;22;45406;-70
2023/10/13 08:13:36;;;;;;;;;14.25;12.00;;;;;20.70;72.48;100577.94;6337812;22;45539;-71
2023/10/13 08:16:07;;;;;;;;;14.25;13.25;;;;;20.69;72.59;100573.50;6310635;22;45360;-68
2023/10/13 08:18:33;;;;;;;;;15.75;13.75;;;;;20.71;72.52;100565.25;6337170;22;45307;-73
2023/10/13 08:21:05;;;;;;;;;13.25;13.25;;;;;20.80;71.79;100578.09;6309413;22;47157;-73
2023/10/13 08:23:58;;;;;;;;;12.25;12.25;;;;;20.83;71.51;100582.41;6336835;22;45354;-73
2023/10/13 08:34:59;;;;;;;;;13.25;10.75;;;;;20.87;70.93;100559.50;6336869;22;45300;-73
2023/10/13 08:45:53;;;;;;;;;12.00;11.00;;;;;20.99;70.56;100574.78;6336459;22;45563;-73
2023/10/13 09:02:15;;;;;;;;;16.50;12.25;;;;;21.19;69.49;100548.78;6337104;22;45617;-73
2023/10/13 09:14:57;;;;;;;;;10.50;10.50;;;;;21.32;68.94;100529.66;6336515;22;45620;-73
2023/10/13 09:17:35;;;;;;;;;14.50;11.75;;;;;21.40;68.60;100540.78;6336199;22;45356;-71
2023/10/13 09:20:23;;;;;;;;;10.75;9.75;;;;;21.43;68.72;100532.38;6336458;22;45625;-76
2023/10/13 09:25:35;;;;;;;;;10.25;9.50;;;;;21.53;68.51;100528.94;6336969;22;45412;-72
2023/10/13 09:28:15;;;;;;;;;12.00;10.50;;;;;21.57;68.17;100528.56;6334557;22;45390;-72
2023/10/13 09:30:49;;;;;;;;;10.75;9.50;;;;;21.62;68.30;100520.91;6335992;22;45340;-73
2023/10/13 09:33:28;;;;;;;;;11.00;10.75;;;;;21.66;68.28;100521.50;6335745;22;45478;-73
2023/10/13 09:35:54;;;;;;;;;11.25;11.25;;;;;21.72;68.21;100530.97;6337943;22;47208;-73
2023/10/13 09:38:20;;;;;;;;;13.25;12.25;;;;;21.79;67.65;100524.91;6338275;22;45258;-73
2023/10/13 09:41:01;;;;;;;;;11.50;11.25;;;;;21.78;68.22;100519.63;6332946;22;45289;-70
2023/10/13 09:43:30;;;;;;;;;12.75;11.50;;;;;21.87;67.86;100516.16;6335645;22;45588;-73
2023/10/13 09:46:02;;;;;;;;;10.75;10.00;;;;;21.91;67.06;100519.47;6336096;22;45672;-73
2023/10/13 09:48:41;;;;;;;;;10.50;10.50;;;;;21.96;67.54;100519.94;6337074;22;45570;-73
2023/10/13 09:51:12;;;;;;;;;13.00;10.75;;;;;21.97;66.72;100508.94;6336281;22;45368;-73
2023/10/13 09:53:45;;;;;;;;;10.25;10.25;;;;;22.07;66.74;100519.91;6336228;22;45264;-73
2023/10/13 09:56:27;;;;;;;;;13.75;11.00;;;;;22.12;66.95;100509.50;6335450;22;45744;-73
2023/10/13 09:59:09;;;;;;;;;9.75;8.00;;;;;22.16;66.24;100513.69;6336492;22;45448;-73
2023/10/13 10:01:50;;;;;;;;;10.75;10.75;;;;;22.20;65.85;100497.97;6334271;22;45362;-73
2023/10/13 10:04:20;;;;;;;;;11.50;9.50;;;;;22.23;64.82;100497.69;6336498;22;45403;-71
2023/10/13 10:06:53;;;;;;;;;11.25;9.50;;;;;22.27;65.17;100496.47;6335628;22;47030;-73
2023/10/13 10:09:22;;;;;;;;;11.00;11.00;;;;;22.34;64.57;100491.41;6336926;22;45251;-73
2023/10/13 10:12:25;;;;;;;;;12.00;11.00;;;;;22.42;64.56;100488.88;6337825;22;45566;-72
2023/10/13 10:15:28;;;;;;;;;10.00;9.00;;;;;22.48;64.06;100482.03;6337474;22;45418;-73
2023/10/13 10:17:54;;;;;;;;;15.00;11.50;;;;;22.55;64.55;100475.94;6338250;22;45435;-72
2023/10/13 10:20:42;;;;;;;;;12.50;12.00;;;;;22.60;64.24;100478.22;6338200;22;45241;-73
2023/10/13 10:23:21;;;;;;;;;15.50;10.50;;;;;22.66;63.03;100474.13;6338863;22;45594;-72
2023/10/13 10:25:47;;;;;;;;;12.00;11.75;;;;;22.70;64.04;100476.47;6339192;22;45435;-73
2023/10/13 10:28:15;;;;;;;;;9.25;9.25;;;;;22.72;63.21;100470.84;6338356;22;46412;-73
2023/10/13 10:30:42;;;;;;;;;13.25;10.25;;;;;22.78;63.63;100464.03;6338705;22;45269;-73
2023/10/13 10:33:12;;;;;;;;;13.50;12.25;;;;;22.82;63.20;100468.19;6338493;22;45740;-77
2023/10/13 10:35:43;;;;;;;;;12.50;11.50;;;;;22.86;63.59;100456.91;6337594;22;45352;-77
2023/10/13 10:38:38;;;;;;;;;10.00;10.00;;;;;22.89;63.01;100445.75;6337826;22;46273;-76
2023/10/13 10:41:04;;;;;;;;;14.50;12.25;;;;;22.94;63.14;100450.78;6336484;22;45314;-76
2023/10/13 10:43:47;;;;;;;;;13.50;11.75;;;;;22.98;62.74;100471.28;6337833;22;45293;-76
2023/10/13 10:46:25;;;;;;;;;12.00;11.00;;;;;23.02;63.01;100472.75;6337575;22;45681;-77
2023/10/13 10:48:56;;;;;;;;;13.50;10.75;;;;;23.13;62.75;100482.69;6336842;22;46186;-76
2023/10/13 10:51:22;;;;;;;;;9.25;8.00;;;;;23.20;62.60;100483.00;6337547;22;45276;-76
2023/10/13 10:53:52;;;;;;;;;11.75;9.00;;;;;23.23;62.45;100480.00;6337676;22;45390;-73
2023/10/13 10:56:36;;;;;;;;;8.25;7.75;;;;;23.35;62.22;100483.47;6335798;22;45438;-72
2023/10/13 10:59:04;;;;;;;;;10.75;8.75;;;;;23.42;62.15;100479.19;6336904;22;45392;-72
2023/10/13 11:01:33;;;;;;;;;8.00;8.00;;;;;23.42;62.05;100474.63;6338372;22;45271;-72
2023/10/13 11:04:18;;;;;;;;;8.00;4.50;;;;;23.48;61.51;100478.66;6338356;22;45430;-72
2023/10/13 11:06:49;;;;;;;;;10.75;10.00;;;;;23.54;60.98;100479.94;6339450;22;45271;-72
2023/10/13 11:09:27;;;;;;;;;9.25;9.25;;;;;23.51;61.51;100469.34;6338911;22;46609;-73
2023/10/13 11:11:57;;;;;;;;;10.00;9.00;;;;;23.57;60.84;100488.72;6338072;22;45361;-72
2023/10/13 11:14:28;;;;;;;;;10.50;10.00;;;;;23.71;60.29;100479.25;6339261;22;45366;-72
2023/10/13 11:16:59;;;;;;;;;11.25;10.00;;;;;23.78;60.18;100480.41;6340356;22;45290;-73
2023/10/13 11:19:36;;;;;;;;;13.50;10.75;;;;;23.81;59.46;100469.22;6339322;22;45956;-72
2023/10/13 11:25:09;;;;;;;;;11.00;9.50;;;;;23.92;59.59;100464.69;6339573;22;45440;-73
2023/10/13 11:30:20;;;;;;;;;11.75;11.25;;;;;23.99;59.38;100452.19;6338493;22;45997;-73
2023/10/13 11:33:05;;;;;;;;;10.75;9.50;;;;;24.01;59.21;100437.41;6339539;22;45251;-73
2023/10/13 11:38:25;;;;;;;;;8.75;8.75;;;;;24.09;59.14;100442.16;6339370;22;45318;-72
2023/10/13 11:48:36;;;;;;;;;11.50;10.00;;;;;24.21;58.88;100432.81;6338991;22;45275;-73
2023/10/13 11:51:07;;;;;;;;;11.00;11.00;;;;;24.18;58.72;100426.78;6339160;22;46098;-72
2023/10/13 11:53:36;;;;;;;;;10.50;10.25;;;;;24.26;58.97;100435.09;6339245;22;45463;-72
2023/10/13 11:56:11;;;;;;;;;16.00;12.50;;;;;24.28;58.69;100427.63;6338649;22;45292;-73
2023/10/13 11:58:40;;;;;;;;;11.00;9.75;;;;;24.30;58.69;100428.34;6335649;22;45485;-70
2023/10/13 12:09:13;;;;;;;;;10.25;10.00;;;;;24.37;58.60;100407.66;6338294;22;45347;-73
2023/10/13 12:11:41;;;;;;;;;10.00;9.50;;;;;24.45;59.21;100411.53;6337041;22;45333;-74
2023/10/13 12:14:17;;;;;;;;;4.50;4.50;;;;;24.46;57.78;100414.09;6338148;22;45520;-73
2023/10/13 12:16:48;;;;;;;;;10.00;10.00;;;;;24.50;58.38;100411.94;6336973;22;45599;-69
2023/10/13 12:19:16;;;;;;;;;10.25;9.25;;;;;24.52;58.21;100407.19;6338399;22;45334;-70
2023/10/13 12:21:43;;;;;;;;;9.00;8.25;;;;;24.53;58.41;100396.13;6339405;22;45933;-70
2023/10/13 12:24:21;;;;;;;;;9.75;8.75;;;;;24.51;58.26;100394.56;6336774;22;45426;-70
2023/10/13 12:26:47;;;;;;;;;10.00;6.25;;;;;24.54;58.05;100389.66;6334992;22;45592;-70
2023/10/13 12:29:22;;;;;;;;;12.00;10.50;;;;;24.52;58.16;100379.91;6339086;22;45445;-70
2023/10/13 12:32:01;;;;;;;;;8.25;7.50;;;;;24.56;57.38;100381.38;6339318;22;46995;-70
2023/10/13 12:34:46;;;;;;;;;9.50;8.75;;;;;24.57;57.99;100392.13;6336913;22;45671;-70
2023/10/13 12:37:37;;;;;;;;;11.25;9.50;;;;;24.58;58.23;100374.72;6338333;22;45517;-70
2023/10/13 12:51:07;;;;;;;;;10.00;9.50;;;;;24.70;57.26;100352.72;6334592;22;45425;-72
2023/10/13 12:53:33;;;;;;;;;8.25;8.00;;;;;24.70;57.93;100350.84;6333156;22;45471;-72
2023/10/13 12:55:58;;;;;;;;;9.50;9.25;;;;;24.68;57.87;100352.03;6333584;22;45553;-72
2023/10/13 12:58:26;;;;;;;;;7.00;7.00;;;;;24.75;58.12;100348.50;6334749;22;45427;-70
2023/10/13 13:01:06;;;;;;;;;10.50;8.25;;;;;24.80;57.13;100353.53;6331380;22;45430;-71
2023/10/13 13:03:32;;;;;;;;;8.00;8.00;;;;;24.81;57.84;100346.19;6334398;22;46107;-71
2023/10/13 13:05:58;;;;;;;;;8.75;8.25;;;;;24.82;57.44;100345.19;6333865;22;45513;-71
2023/10/13 13:08:23;;;;;;;;;9.50;9.50;;;;;24.84;56.95;100356.81;6334271;22;45655;-71
2023/10/13 13:10:49;;;;;;;;;6.50;6.25;;;;;24.85;56.73;100359.38;6335764;22;45365;-71
2023/10/13 13:13:16;;;;;;;;;10.25;8.75;;;;;24.89;57.21;100351.75;6333954;22;45885;-70
2023/10/13 13:15:42;;;;;;;;;13.50;9.50;;;;;24.94;57.11;100361.22;6309915;22;45352;-71
2023/10/13 13:18:11;;;;;;;;;11.00;9.00;;;;;24.96;56.47;100358.34;6338450;22;45268;-73
2023/10/13 13:20:43;;;;;;;;;12.25;10.75;;;;;24.99;57.02;100335.31;6337306;22;45326;-71
2023/10/13 13:23:12;;;;;;;;;8.50;8.50;;;;;24.98;56.43;100339.09;6337436;22;46149;-71
2023/10/13 13:25:42;;;;;;;;;11.50;8.50;;;;;25.00;56.80;100343.34;6338141;22;45242;-71
2023/10/13 13:28:09;;;;;;;;;8.50;8.50;;;;;24.97;56.36;100321.81;6339323;22;45308;-71
2023/10/13 13:30:37;;;;;;;;;12.75;10.25;;;;;24.99;55.79;100335.31;6337763;22;45429;-71
2023/10/13 13:33:10;;;;;;;;;11.25;8.50;;;;;24.96;56.77;100322.84;6337559;22;46071;-71
2023/10/13 13:35:37;;;;;;;;;12.75;9.50;;;;;24.98;56.09;100314.50;6339191;22;45284;-71
2023/10/13 13:40:49;;;;;;;;;11.00;8.00;;;;;24.97;56.26;100302.69;6339141;22;45336;-71
2023/10/13 13:43:31;;;;;;;;;10.25;8.75;;;;;25.03;55.91;100323.09;6339161;22;46172;-71
2023/10/13 13:46:00;;;;;;;;;9.25;8.00;;;;;25.03;56.56;100314.91;6337618;22;45555;-71
2023/10/13 13:48:27;;;;;;;;;10.00;10.00;;;;;25.01;56.44;100322.38;6338434;22;45379;-71
2023/10/13 13:50:55;;;;;;;;;8.25;8.25;;;;;24.99;56.23;100314.31;6338562;22;45463;-71
2023/10/13 13:53:27;;;;;;;;;11.50;10.00;;;;;25.00;56.30;100318.78;6338490;22;45488;-71
2023/10/13 13:55:52;;;;;;;;;13.25;10.75;;;;;24.98;56.17;100309.03;6338620;22;45353;-71
2023/10/13 13:58:18;;;;;;;;;13.00;10.00;;;;;24.96;56.21;100307.31;6338922;22;45362;-71
2023/10/13 14:00:48;;;;;;;;;12.25;9.50;;;;;24.93;56.49;100296.69;6338709;22;45286;-71
2023/10/13 14:03:30;;;;;;;;;12.00;7.25;;;;;24.94;56.07;100308.47;6338170;22;45618;-71
2023/10/13 14:05:59;;;;;;;;;13.00;9.25;;;;;24.95;55.92;100305.59;6338691;22;45276;-71
2023/10/13 14:08:27;;;;;;;;;11.00;9.00;;;;;24.95;55.37;100297.41;6310270;22;45252;-71
2023/10/13 14:13:49;;;;;;;;;12.75;9.50;;;;;24.91;56.16;100292.41;6338755;22;45455;-71
2023/10/13 14:16:20;;;;;;;;;11.00;9.00;;;;;24.91;56.25;100278.78;6336462;22;45267;-71
2023/10/13 14:18:47;;;;;;;;;11.50;10.25;;;;;24.92;55.85;100294.13;6338462;22;45701;-71
2023/10/13 14:21:24;;;;;;;;;9.50;8.50;;;;;24.91;55.65;100279.63;6333111;22;45656;-71
2023/10/13 14:23:53;;;;;;;;;10.00;9.75;;;;;24.91;55.29;100286.97;6335904;22;45484;-71
2023/10/13 14:26:21;;;;;;;;;14.50;10.50;;;;;24.89;55.46;100284.38;6337433;22;45321;-71
2023/10/13 14:29:00;;;;;;;;;10.50;10.50;;;;;24.91;55.31;100281.50;6337428;22;45731;-71
2023/10/13 14:31:28;;;;;;;;;9.50;9.25;;;;;24.90;56.26;100280.63;6336518;22;45552;-71
2023/10/13 14:33:54;;;;;;;;;14.00;11.50;;;;;24.88;56.03;100276.34;6337625;22;46521;-71
2023/10/13 14:36:22;;;;;;;;;11.50;9.50;;;;;24.85;55.62;100272.03;6338444;22;45227;-71
2023/10/13 14:38:50;;;;;;;;;15.00;11.50;;;;;24.86;55.81;100272.88;6338009;22;45323;-71
2023/10/13 14:41:17;;;;;;;;;11.50;11.50;;;;;24.83;55.39;100268.59;6338251;22;45442;-71
2023/10/13 14:43:49;;;;;;;;;16.00;13.00;;;;;24.85;55.63;100273.91;6337620;22;46030;-70
2023/10/13 14:46:15;;;;;;;;;16.75;13.50;;;;;24.84;55.99;100264.00;6338121;22;45404;-71
2023/10/13 14:48:42;;;;;;;;;13.25;12.75;;;;;24.83;55.48;100267.75;6338467;22;45365;-71
2023/10/13 14:51:12;;;;;;;;;14.25;12.00;;;;;24.80;55.54;100251.69;6339036;22;45549;-71
2023/10/13 14:53:44;;;;;;;;;13.00;13.00;;;;;24.82;55.62;100255.13;6337953;22;45324;-71
2023/10/13 14:56:13;;;;;;;;;11.50;11.50;;;;;24.81;56.00;100253.38;6337886;22;45226;-71
2023/10/13 14:58:42;;;;;;;;;17.00;15.00;;;;;24.79;56.06;100264.44;6338985;22;45369;-71
2023/10/13 15:01:17;;;;;;;;;15.00;13.25;;;;;24.77;55.51;100253.72;6337145;22;45402;-71